Time;durP1;ratioP1;P1;durP2;ratioP2;P2;SDS_P1;SDS_P2;PMS_P1;PMS_P2;Temp;Humidity;BMP_temperature;BMP_pressure;BME280_temperature;BME280_humidity;BME280_pressure;Samples;Min_cycle;Max_cycle;Signal;HPM_P1;HPM_P2
2023/02/04 00:01:23;;;;;;;7.70;6.00;;;2.60;78.00;;;;;;5080748;28;20024;-62
2023/02/04 00:03:49;;;;;;;8.98;6.80;;;2.60;78.10;;;;;;5092817;28;20458;-61
2023/02/04 00:06:15;;;;;;;8.20;6.32;;;2.60;78.00;;;;;;5079345;28;20028;-61
2023/02/04 00:08:40;;;;;;;9.35;6.90;;;2.60;78.10;;;;;;5086470;28;20062;-62
2023/02/04 00:11:06;;;;;;;9.32;6.47;;;2.60;78.00;;;;;;5092718;28;20028;-66
2023/02/04 00:13:31;;;;;;;6.93;5.78;;;2.60;78.00;;;;;;5078759;28;20536;-66
2023/02/04 00:15:57;;;;;;;7.18;6.05;;;2.60;78.10;;;;;;5092472;28;20032;-62
2023/02/04 00:18:23;;;;;;;7.97;6.20;;;2.60;78.10;;;;;;5083625;28;20077;-62
2023/02/04 00:20:49;;;;;;;7.00;5.78;;;2.60;78.10;;;;;;5087029;28;20050;-61
2023/02/04 00:23:14;;;;;;;7.53;6.22;;;2.60;78.20;;;;;;5094189;28;20032;-62
2023/02/04 00:25:40;;;;;;;8.23;5.90;;;2.70;78.10;;;;;;5092792;28;20032;-61
2023/02/04 00:28:06;;;;;;;7.30;5.90;;;2.60;78.30;;;;;;5082790;28;20320;-62
2023/02/04 00:30:32;;;;;;;7.25;5.47;;;2.70;78.40;;;;;;5092853;28;20764;-63
2023/02/04 00:32:57;;;;;;;7.10;5.63;;;2.70;78.20;;;;;;5095180;28;20500;-64
2023/02/04 00:35:23;;;;;;;8.05;6.07;;;2.70;78.00;;;;;;5093508;28;20024;-64
2023/02/04 00:37:50;;;;;;;8.38;6.13;;;2.70;77.80;;;;;;5093015;28;20127;-64
2023/02/04 00:40:16;;;;;;;7.28;5.70;;;2.70;77.90;;;;;;5094021;28;20020;-63
2023/02/04 00:42:41;;;;;;;9.13;5.70;;;2.70;78.00;;;;;;5094166;28;20111;-58
2023/02/04 00:45:09;;;;;;;7.75;5.97;;;2.70;78.30;;;;;;5093731;28;20035;-53
2023/02/04 00:47:35;;;;;;;7.20;5.38;;;2.70;78.20;;;;;;5091910;28;20024;-61
2023/02/04 00:50:00;;;;;;;8.07;5.93;;;2.70;78.10;;;;;;5094711;28;20346;-62
2023/02/04 00:52:26;;;;;;;8.23;5.90;;;2.70;78.10;;;;;;5091262;28;20028;-63
2023/02/04 00:54:51;;;;;;;7.20;5.90;;;2.70;78.20;;;;;;5094448;28;20069;-63
2023/02/04 00:57:18;;;;;;;8.23;6.22;;;2.70;78.10;;;;;;5087991;28;20040;-64
2023/02/04 00:59:43;;;;;;;7.10;5.38;;;2.80;78.20;;;;;;5093156;28;20035;-64
2023/02/04 01:02:09;;;;;;;7.32;6.00;;;2.80;78.20;;;;;;5095052;28;20036;-52
2023/02/04 01:04:35;;;;;;;6.28;5.10;;;2.80;78.10;;;;;;5094143;28;20063;-58
2023/02/04 01:07:00;;;;;;;6.32;5.35;;;2.80;78.00;;;;;;5092370;28;20032;-65
2023/02/04 01:09:26;;;;;;;5.97;5.38;;;2.90;78.10;;;;;;5081412;28;20032;-67
2023/02/04 01:11:52;;;;;;;7.00;5.53;;;2.90;77.90;;;;;;5093077;28;20385;-61
2023/02/04 01:14:17;;;;;;;6.57;5.40;;;2.90;77.80;;;;;;5091352;28;20038;-61
2023/02/04 01:16:44;;;;;;;6.38;5.20;;;2.90;77.60;;;;;;5077535;28;20024;-66
2023/02/04 01:19:10;;;;;;;6.88;5.63;;;2.90;77.60;;;;;;5090179;28;20028;-67
2023/02/04 01:21:36;;;;;;;6.63;5.32;;;2.90;77.60;;;;;;5093838;28;20024;-63
2023/02/04 01:24:02;;;;;;;9.65;6.32;;;3.00;78.20;;;;;;5078985;28;20016;-61
2023/02/04 01:26:28;;;;;;;7.43;6.32;;;3.00;77.70;;;;;;5092026;28;20077;-63
2023/02/04 01:28:54;;;;;;;7.45;6.15;;;3.00;77.90;;;;;;5093289;28;20032;-63
2023/02/04 01:31:19;;;;;;;6.45;5.68;;;3.10;77.80;;;;;;5085904;28;20038;-58
2023/02/04 01:33:45;;;;;;;8.07;6.13;;;3.20;77.50;;;;;;5081553;28;20047;-55
2023/02/04 01:36:11;;;;;;;8.20;6.47;;;3.40;77.40;;;;;;5091430;28;20020;-64
2023/02/04 01:38:36;;;;;;;7.82;6.20;;;3.40;77.00;;;;;;5084741;28;20458;-66
2023/02/04 01:41:03;;;;;;;7.28;5.55;;;3.50;76.80;;;;;;5075082;28;20481;-51
2023/02/04 01:43:29;;;;;;;9.25;6.32;;;3.60;76.60;;;;;;5076670;28;20036;-50
2023/02/04 01:45:55;;;;;;;8.05;6.13;;;3.60;76.30;;;;;;5082381;28;20363;-61
2023/02/04 01:48:22;;;;;;;6.63;5.85;;;3.70;76.20;;;;;;5076607;28;20040;-61
2023/02/04 01:50:50;;;;;;;7.30;5.95;;;3.80;76.10;;;;;;5087774;28;20050;-65
2023/02/04 01:53:22;;;;;;;7.35;5.45;;;3.80;75.80;;;;;;5090300;28;20094;-64
2023/02/04 01:55:48;;;;;;;9.00;6.38;;;3.90;75.60;;;;;;5084191;28;20067;-54
2023/02/04 01:58:15;;;;;;;7.45;6.05;;;3.90;75.40;;;;;;5073515;28;20039;-52
2023/02/04 02:00:41;;;;;;;6.20;5.30;;;3.90;75.30;;;;;;5086163;28;20050;-64
2023/02/04 02:03:10;;;;;;;8.00;6.60;;;3.90;75.10;;;;;;5088468;28;20092;-67
2023/02/04 02:05:51;;;;;;;8.02;6.03;;;3.90;75.00;;;;;;5085046;28;20381;-63
2023/02/04 02:08:17;;;;;;;8.50;6.38;;;3.90;74.90;;;;;;5091203;28;20366;-64
2023/02/04 02:10:45;;;;;;;8.93;6.25;;;3.90;75.10;;;;;;5086264;28;20021;-53
2023/02/04 02:13:15;;;;;;;6.35;5.68;;;3.90;74.90;;;;;;5092372;28;20107;-50
2023/02/04 02:15:41;;;;;;;8.65;6.57;;;3.90;74.70;;;;;;5092686;28;20024;-59
2023/02/04 02:18:07;;;;;;;8.38;6.40;;;3.90;74.60;;;;;;5092039;28;20024;-61
2023/02/04 02:20:33;;;;;;;8.05;6.50;;;3.80;74.60;;;;;;5085291;28;20037;-60
2023/02/04 02:23:12;;;;;;;8.50;6.63;;;3.80;74.80;;;;;;5090033;28;20058;-60
2023/02/04 02:25:38;;;;;;;7.38;5.90;;;3.70;75.00;;;;;;5088423;28;20024;-59
2023/02/04 02:28:10;;;;;;;9.35;6.32;;;3.60;75.10;;;;;;5083996;28;20047;-61
2023/02/04 02:30:36;;;;;;;9.05;6.38;;;3.50;75.20;;;;;;5092423;28;20063;-64
2023/02/04 02:33:02;;;;;;;8.85;6.28;;;3.50;75.50;;;;;;5089181;28;20060;-62
2023/02/04 02:35:28;;;;;;;6.95;6.25;;;3.50;75.60;;;;;;5092209;28;20032;-64
2023/02/04 02:37:54;;;;;;;8.73;6.30;;;3.50;75.70;;;;;;5088114;28;20034;-64
2023/02/04 02:40:19;;;;;;;7.07;6.00;;;3.60;75.40;;;;;;5092274;28;20515;-56
2023/02/04 02:42:49;;;;;;;8.57;5.90;;;3.70;75.30;;;;;;5091664;28;20050;-59
2023/02/04 02:45:27;;;;;;;8.07;6.18;;;3.70;75.30;;;;;;5088259;28;20062;-55
2023/02/04 02:47:55;;;;;;;7.88;5.88;;;3.80;75.10;;;;;;5091521;28;20058;-53
2023/02/04 02:50:23;;;;;;;7.10;5.78;;;3.80;74.90;;;;;;5074004;28;20031;-62
2023/02/04 02:52:49;;;;;;;6.72;5.55;;;3.90;74.70;;;;;;5090052;28;20458;-62
2023/02/04 02:55:17;;;;;;;6.93;5.82;;;3.90;74.40;;;;;;5091375;28;20096;-62
2023/02/04 02:57:45;;;;;;;7.38;5.85;;;3.90;74.20;;;;;;5084227;28;20048;-62
2023/02/04 03:00:19;;;;;;;7.40;5.82;;;3.90;74.30;;;;;;5082282;28;20627;-63
2023/02/04 03:02:51;;;;;;;6.28;5.25;;;3.90;74.30;;;;;;5085629;28;20111;-62
2023/02/04 03:05:16;;;;;;;7.60;5.93;;;3.80;74.10;;;;;;5092391;28;20032;-54
2023/02/04 03:07:42;;;;;;;6.15;5.32;;;3.80;74.00;;;;;;5091306;28;20081;-55
2023/02/04 03:10:08;;;;;;;6.40;5.70;;;3.70;74.00;;;;;;5081352;28;20146;-51
2023/02/04 03:12:34;;;;;;;8.40;6.18;;;3.60;74.10;;;;;;5084483;28;20462;-64
2023/02/04 03:15:00;;;;;;;7.28;5.88;;;3.50;74.20;;;;;;5089366;28;20026;-64
2023/02/04 03:17:25;;;;;;;8.05;6.10;;;3.50;74.50;;;;;;5090925;28;20067;-63
2023/02/04 03:19:51;;;;;;;8.45;5.97;;;3.40;74.70;;;;;;5090899;28;20046;-63
2023/02/04 03:22:17;;;;;;;7.22;6.22;;;3.40;74.80;;;;;;5090085;28;20036;-50
2023/02/04 03:24:42;;;;;;;8.57;7.03;;;3.40;74.80;;;;;;5091541;28;20027;-50
2023/02/04 03:27:08;;;;;;;8.68;6.40;;;3.40;74.90;;;;;;5088012;28;20024;-56
2023/02/04 03:29:39;;;;;;;7.15;6.05;;;3.30;74.80;;;;;;5089703;28;20043;-55
2023/02/04 03:32:05;;;;;;;7.75;6.18;;;3.30;74.80;;;;;;5087562;28;20032;-63
2023/02/04 03:34:31;;;;;;;7.55;6.40;;;3.20;75.00;;;;;;5089545;28;20028;-64
2023/02/04 03:36:56;;;;;;;7.70;6.25;;;3.20;75.10;;;;;;5086473;28;20028;-62
2023/02/04 03:39:22;;;;;;;7.32;6.28;;;3.10;75.20;;;;;;5094756;28;20074;-62
2023/02/04 03:41:48;;;;;;;7.28;6.32;;;3.00;75.30;;;;;;5082720;28;20055;-66
2023/02/04 03:44:13;;;;;;;7.78;6.28;;;3.00;75.40;;;;;;5095553;28;20020;-66
2023/02/04 03:46:39;;;;;;;8.60;6.32;;;3.00;75.60;;;;;;5095828;28;20020;-66
2023/02/04 03:49:04;;;;;;;8.38;6.45;;;3.00;75.70;;;;;;5091707;28;20081;-62
2023/02/04 03:51:30;;;;;;;6.53;5.78;;;3.00;75.80;;;;;;5084159;28;20020;-60
2023/02/04 03:53:56;;;;;;;6.88;5.65;;;3.00;75.80;;;;;;5094709;28;20040;-60
2023/02/04 03:56:21;;;;;;;7.35;5.60;;;3.00;75.80;;;;;;5094512;28;20075;-60
2023/02/04 03:58:47;;;;;;;6.85;5.47;;;2.90;75.60;;;;;;5096009;28;20036;-61
2023/02/04 04:01:13;;;;;;;7.53;5.53;;;2.90;75.70;;;;;;5095572;28;20430;-62
2023/02/04 04:03:38;;;;;;;7.53;5.75;;;2.90;75.80;;;;;;5094914;28;20069;-60
2023/02/04 04:06:07;;;;;;;7.20;5.97;;;2.90;75.90;;;;;;5094682;28;20531;-54
2023/02/04 04:08:33;;;;;;;6.32;5.38;;;2.90;75.90;;;;;;5094692;28;20102;-55
2023/02/04 04:10:59;;;;;;;7.28;5.72;;;2.90;76.00;;;;;;5095320;28;20420;-64
2023/02/04 04:13:24;;;;;;;6.07;5.07;;;2.90;76.00;;;;;;5082532;28;20028;-62
2023/02/04 04:15:50;;;;;;;7.28;5.55;;;2.90;75.90;;;;;;5092408;28;20036;-64
2023/02/04 04:18:15;;;;;;;7.38;5.70;;;2.90;75.90;;;;;;5085587;28;20024;-64
2023/02/04 04:20:41;;;;;;;7.18;5.55;;;2.90;76.00;;;;;;5094585;28;20028;-61
2023/02/04 04:23:07;;;;;;;6.05;5.22;;;2.90;76.10;;;;;;5085285;28;20032;-61
2023/02/04 04:25:32;;;;;;;6.72;5.35;;;2.90;76.90;;;;;;5094393;28;20063;-59
2023/02/04 04:27:58;;;;;;;7.45;5.35;;;2.90;76.20;;;;;;5093469;28;20034;-59
2023/02/04 04:30:23;;;;;;;6.20;5.60;;;2.90;76.10;;;;;;5089249;28;20081;-60
2023/02/04 04:32:49;;;;;;;8.32;6.18;;;2.90;76.20;;;;;;5077604;28;20462;-60
2023/02/04 04:35:15;;;;;;;9.00;6.63;;;3.00;76.20;;;;;;5078415;28;20028;-61
2023/02/04 04:37:40;;;;;;;8.38;6.60;;;3.00;76.20;;;;;;5095210;28;20093;-63
2023/02/04 04:40:06;;;;;;;7.22;5.65;;;3.10;76.10;;;;;;5092480;28;20111;-63
2023/02/04 04:42:32;;;;;;;7.03;5.60;;;3.20;76.00;;;;;;5092794;28;20085;-65
2023/02/04 04:44:57;;;;;;;8.25;6.18;;;3.30;75.70;;;;;;5081997;28;20051;-63
2023/02/04 04:47:23;;;;;;;7.65;5.85;;;3.40;75.40;;;;;;5085408;28;20036;-60
2023/02/04 04:49:49;;;;;;;7.22;5.68;;;3.50;75.00;;;;;;5088548;28;20054;-60
2023/02/04 04:52:14;;;;;;;6.70;5.80;;;3.50;74.70;;;;;;5082128;28;20052;-51
2023/02/04 04:54:40;;;;;;;6.22;5.53;;;3.60;74.40;;;;;;5079623;28;20135;-51
2023/02/04 04:57:05;;;;;;;6.88;5.80;;;3.60;74.20;;;;;;5090329;28;20096;-61
2023/02/04 04:59:31;;;;;;;6.55;5.68;;;3.60;74.10;;;;;;5094830;28;20471;-61
2023/02/04 05:01:56;;;;;;;8.65;6.10;;;3.60;74.00;;;;;;5092841;28;20028;-60
2023/02/04 05:04:22;;;;;;;6.05;5.45;;;3.60;73.90;;;;;;5089252;28;20024;-60
2023/02/04 05:06:48;;;;;;;7.10;5.63;;;3.60;73.80;;;;;;5094944;28;20031;-62
2023/02/04 05:09:15;;;;;;;7.20;5.88;;;3.60;73.80;;;;;;5094246;28;20028;-62
2023/02/04 05:11:41;;;;;;;8.00;6.25;;;3.60;73.80;;;;;;5091719;28;20024;-61
2023/02/04 05:14:06;;;;;;;8.77;5.75;;;3.60;73.80;;;;;;5089078;28;20546;-61
2023/02/04 05:16:32;;;;;;;7.57;5.65;;;3.60;73.70;;;;;;5087018;28;20469;-50
2023/02/04 05:18:57;;;;;;;7.38;6.28;;;3.50;73.80;;;;;;5093971;28;20017;-52
2023/02/04 05:21:23;;;;;;;7.72;6.13;;;3.50;74.00;;;;;;5092811;28;20034;-62
2023/02/04 05:23:49;;;;;;;7.55;6.10;;;3.50;74.00;;;;;;5092975;28;20066;-62
2023/02/04 05:26:14;;;;;;;10.55;6.63;;;3.50;74.00;;;;;;5093185;28;20047;-61
2023/02/04 05:28:40;;;;;;;8.80;6.90;;;3.40;73.90;;;;;;5087429;28;20040;-61
2023/02/04 05:31:05;;;;;;;10.45;7.28;;;3.40;74.20;;;;;;5093312;28;20398;-51
2023/02/04 05:33:31;;;;;;;9.73;7.78;;;3.40;74.40;;;;;;5075173;28;20417;-52
2023/02/04 05:35:57;;;;;;;9.38;8.18;;;3.40;75.00;;;;;;5092302;28;20393;-61
2023/02/04 05:38:22;;;;;;;9.90;8.30;;;3.50;74.10;;;;;;5093554;28;20040;-65
2023/02/04 05:40:48;;;;;;;13.15;7.95;;;3.50;74.00;;;;;;5091221;28;20063;-62
2023/02/04 05:43:13;;;;;;;11.38;8.10;;;3.50;74.00;;;;;;5087360;28;20093;-62
2023/02/04 05:45:39;;;;;;;10.38;8.68;;;3.50;73.90;;;;;;5083272;28;20024;-60
2023/02/04 05:48:05;;;;;;;12.75;8.73;;;3.40;73.90;;;;;;5089805;28;20047;-60
2023/02/04 05:50:30;;;;;;;10.35;8.15;;;3.40;74.10;;;;;;5084407;28;20025;-50
2023/02/04 05:52:56;;;;;;;10.57;8.57;;;3.40;74.20;;;;;;5092151;28;20028;-52
2023/02/04 05:55:22;;;;;;;12.45;8.77;;;3.50;74.10;;;;;;5093209;28;20111;-66
2023/02/04 05:57:47;;;;;;;10.82;8.15;;;3.50;73.80;;;;;;5088683;28;20063;-63
2023/02/04 06:00:13;;;;;;;9.00;7.35;;;3.50;73.90;;;;;;5079563;28;20028;-57
2023/02/04 06:02:39;;;;;;;10.18;8.27;;;3.50;73.80;;;;;;5081105;28;20088;-56
2023/02/04 06:05:05;;;;;;;10.95;7.97;;;3.60;73.80;;;;;;5091936;28;20287;-58
2023/02/04 06:07:31;;;;;;;9.52;7.32;;;3.60;74.00;;;;;;5092059;28;20145;-56
2023/02/04 06:09:56;;;;;;;9.63;7.40;;;3.60;73.80;;;;;;5092670;28;20529;-54
2023/02/04 06:12:22;;;;;;;9.73;8.15;;;3.60;73.60;;;;;;5091323;28;20012;-62
2023/02/04 06:14:47;;;;;;;9.35;8.10;;;3.70;73.60;;;;;;5086425;28;20024;-62
2023/02/04 06:17:13;;;;;;;8.90;7.18;;;3.60;73.70;;;;;;5092307;28;20349;-63
2023/02/04 06:19:38;;;;;;;11.05;7.63;;;3.60;73.50;;;;;;5086723;28;20107;-63
2023/02/04 06:22:04;;;;;;;10.50;8.35;;;3.60;73.30;;;;;;5084601;28;20036;-63
2023/02/04 06:24:30;;;;;;;11.25;8.75;;;3.50;73.40;;;;;;5082964;28;20027;-63
2023/02/04 06:26:55;;;;;;;12.63;8.82;;;3.40;73.60;;;;;;5086006;28;20382;-63
2023/02/04 06:29:21;;;;;;;11.07;9.60;;;3.40;73.80;;;;;;5091428;28;20368;-62
2023/02/04 06:31:48;;;;;;;11.60;8.85;;;3.40;74.00;;;;;;5083679;28;20028;-61
2023/02/04 06:34:14;;;;;;;11.90;8.75;;;3.40;73.90;;;;;;5086015;28;20020;-61
2023/02/04 06:36:39;;;;;;;13.02;9.77;;;3.40;73.90;;;;;;5091849;28;20125;-61
2023/02/04 06:39:05;;;;;;;13.27;9.02;;;3.40;74.00;;;;;;5090595;28;20558;-61
2023/02/04 06:41:31;;;;;;;13.30;8.82;;;3.40;74.00;;;;;;5085365;28;20052;-62
2023/02/04 06:43:56;;;;;;;12.52;9.65;;;3.30;73.80;;;;;;5090940;28;20056;-61
2023/02/04 06:46:22;;;;;;;11.15;8.70;;;3.30;74.00;;;;;;5090925;28;20043;-62
2023/02/04 06:48:48;;;;;;;14.90;9.55;;;3.30;74.10;;;;;;5089538;28;20111;-62
2023/02/04 06:51:13;;;;;;;12.70;9.05;;;3.30;74.10;;;;;;5087197;28;20031;-61
2023/02/04 06:53:40;;;;;;;12.48;8.60;;;3.30;74.20;;;;;;5068103;28;20508;-61
2023/02/04 06:56:05;;;;;;;12.38;8.57;;;3.20;74.10;;;;;;5087780;28;20030;-61
2023/02/04 06:58:31;;;;;;;10.52;8.00;;;3.20;74.00;;;;;;5086800;28;20385;-60
2023/02/04 07:00:56;;;;;;;10.50;8.68;;;3.10;74.20;;;;;;5084438;28;20032;-61
2023/02/04 07:03:22;;;;;;;10.20;7.75;;;3.10;74.40;;;;;;5084359;28;20026;-61
2023/02/04 07:05:48;;;;;;;10.20;7.57;;;3.10;74.50;;;;;;5079941;28;20032;-59
2023/02/04 07:08:13;;;;;;;9.10;7.45;;;3.10;74.60;;;;;;5082180;28;20023;-61
2023/02/04 07:10:39;;;;;;;9.52;8.00;;;3.00;74.70;;;;;;5080395;28;20043;-60
2023/02/04 07:13:05;;;;;;;9.15;7.72;;;3.00;74.80;;;;;;5084301;28;20056;-61
2023/02/04 07:15:30;;;;;;;11.13;7.47;;;3.00;74.90;;;;;;5080162;28;20116;-62
2023/02/04 07:17:56;;;;;;;7.82;6.72;;;3.00;75.00;;;;;;5086441;28;20104;-63
2023/02/04 07:20:21;;;;;;;8.48;6.63;;;3.00;74.80;;;;;;5087508;28;20044;-65
2023/02/04 07:22:47;;;;;;;6.88;6.05;;;3.00;74.80;;;;;;5084114;28;20028;-63
2023/02/04 07:25:14;;;;;;;9.00;6.63;;;3.00;74.60;;;;;;5083025;28;20020;-49
2023/02/04 07:27:40;;;;;;;7.50;6.05;;;3.00;74.70;;;;;;5079989;28;20035;-49
2023/02/04 07:30:06;;;;;;;9.30;6.80;;;3.00;74.70;;;;;;5088770;28;20028;-53
2023/02/04 07:32:32;;;;;;;9.00;6.93;;;3.00;74.60;;;;;;5082434;28;20505;-50
2023/02/04 07:34:59;;;;;;;7.00;6.30;;;3.00;74.70;;;;;;5091317;28;20028;-53
2023/02/04 07:37:24;;;;;;;7.63;6.20;;;3.00;74.80;;;;;;5080848;28;20025;-61
2023/02/04 07:39:50;;;;;;;6.88;6.15;;;3.00;74.90;;;;;;5080226;28;20686;-63
2023/02/04 07:42:16;;;;;;;8.50;6.20;;;3.00;74.70;;;;;;5088121;28;20028;-63
2023/02/04 07:44:42;;;;;;;8.80;6.60;;;3.10;74.60;;;;;;5091546;28;20036;-64
2023/02/04 07:47:07;;;;;;;6.82;6.10;;;3.10;74.70;;;;;;5090558;28;20055;-62
2023/02/04 07:49:33;;;;;;;9.90;7.03;;;3.10;74.70;;;;;;5084438;28;20066;-62
2023/02/04 07:51:58;;;;;;;7.45;6.18;;;3.10;74.80;;;;;;5071817;28;21077;-62
2023/02/04 07:54:24;;;;;;;7.30;5.95;;;3.10;74.70;;;;;;5074587;28;20052;-62
2023/02/04 07:56:49;;;;;;;6.80;5.57;;;3.10;74.70;;;;;;5078203;28;20104;-63
2023/02/04 07:59:15;;;;;;;7.72;5.65;;;3.10;74.80;;;;;;5067601;28;20827;-65
2023/02/04 08:01:41;;;;;;;8.10;6.25;;;3.10;74.80;;;;;;5069025;28;20098;-60
2023/02/04 08:04:06;;;;;;;7.93;6.40;;;3.10;74.80;;;;;;5063507;28;20032;-60
2023/02/04 08:06:32;;;;;;;9.70;7.05;;;3.10;74.90;;;;;;5067374;28;20036;-60
2023/02/04 08:08:58;;;;;;;8.95;6.75;;;3.10;74.80;;;;;;5066775;28;20034;-60
2023/02/04 08:11:23;;;;;;;9.23;6.93;;;3.10;74.90;;;;;;5056621;28;20465;-59
2023/02/04 08:13:49;;;;;;;8.00;6.35;;;3.10;75.30;;;;;;5057995;28;20171;-61
2023/02/04 08:16:14;;;;;;;9.60;6.88;;;3.10;74.90;;;;;;5063989;28;20089;-58
2023/02/04 08:18:40;;;;;;;9.85;6.45;;;3.10;74.90;;;;;;5069717;28;20040;-60
2023/02/04 08:21:06;;;;;;;9.13;6.18;;;3.10;74.90;;;;;;5070323;28;20481;-60
2023/02/04 08:23:40;;;;;;;9.15;6.60;;;3.10;75.00;;;;;;5068555;28;20028;-58
2023/02/04 08:26:10;;;;;;;7.68;6.50;;;3.00;75.00;;;;;;5065863;28;20155;-60
2023/02/04 08:28:36;;;;;;;8.93;6.47;;;3.10;75.10;;;;;;5066636;28;20098;-60
2023/02/04 08:31:04;;;;;;;7.50;6.15;;;3.10;75.00;;;;;;5076185;28;20036;-60
2023/02/04 08:33:29;;;;;;;8.35;6.47;;;3.20;75.00;;;;;;5075855;28;20032;-61
2023/02/04 08:35:55;;;;;;;8.55;6.50;;;3.20;74.90;;;;;;5073188;28;20349;-60
2023/02/04 08:38:20;;;;;;;8.38;6.28;;;3.20;74.80;;;;;;5066606;28;20029;-60
2023/02/04 08:40:46;;;;;;;7.18;6.03;;;3.20;74.70;;;;;;5055074;28;20039;-61
2023/02/04 08:43:12;;;;;;;8.50;6.75;;;3.20;74.50;;;;;;5072690;28;20032;-60
2023/02/04 08:45:37;;;;;;;8.43;6.60;;;3.20;74.50;;;;;;5074120;28;20135;-60
2023/02/04 08:48:03;;;;;;;9.13;7.43;;;3.20;74.70;;;;;;5069328;28;20084;-61
2023/02/04 08:50:29;;;;;;;9.93;7.55;;;3.20;74.80;;;;;;5070153;28;20037;-60
2023/02/04 08:52:55;;;;;;;7.88;6.53;;;3.20;74.90;;;;;;5066682;28;20035;-60
2023/02/04 08:55:21;;;;;;;9.32;7.10;;;3.20;74.90;;;;;;5067535;28;20060;-61
2023/02/04 08:57:46;;;;;;;9.55;6.78;;;3.20;74.80;;;;;;5069895;28;20056;-61
2023/02/04 09:00:13;;;;;;;8.60;6.95;;;3.20;74.90;;;;;;5070129;28;20038;-64
2023/02/04 09:02:38;;;;;;;7.68;6.38;;;3.30;75.00;;;;;;5065410;28;20783;-63
2023/02/04 09:05:04;;;;;;;7.53;6.65;;;3.30;75.00;;;;;;5073439;28;20123;-63
2023/02/04 09:07:30;;;;;;;9.20;6.80;;;3.30;74.90;;;;;;5074396;28;20043;-62
2023/02/04 09:09:56;;;;;;;9.88;6.65;;;3.30;74.90;;;;;;5074513;28;20036;-63
2023/02/04 09:12:21;;;;;;;8.45;6.57;;;3.30;74.90;;;;;;5070182;28;20533;-53
2023/02/04 09:14:47;;;;;;;8.15;6.55;;;3.40;75.00;;;;;;5077130;28;20061;-53
2023/02/04 09:17:12;;;;;;;6.72;6.00;;;3.40;75.20;;;;;;5071402;28;20111;-57
2023/02/04 09:19:38;;;;;;;7.72;5.78;;;3.40;75.20;;;;;;5069257;28;20040;-54
2023/02/04 09:22:04;;;;;;;7.20;6.20;;;3.40;75.20;;;;;;5072121;28;20044;-57
2023/02/04 09:24:29;;;;;;;8.43;6.78;;;3.50;75.20;;;;;;5070708;28;20028;-53
2023/02/04 09:26:55;;;;;;;8.77;6.45;;;3.50;75.10;;;;;;5070038;28;20035;-56
2023/02/04 09:29:20;;;;;;;6.85;6.13;;;3.60;75.20;;;;;;5071520;28;20039;-57
2023/02/04 09:31:46;;;;;;;9.45;7.10;;;3.60;75.00;;;;;;5070127;28;20032;-54
2023/02/04 09:34:12;;;;;;;7.90;6.60;;;3.60;75.00;;;;;;5069943;28;20024;-56
2023/02/04 09:36:38;;;;;;;8.02;6.18;;;3.60;74.80;;;;;;5065717;28;20116;-61
2023/02/04 09:39:05;;;;;;;8.05;6.28;;;3.60;74.60;;;;;;5064229;28;20466;-50
2023/02/04 09:41:32;;;;;;;7.40;6.35;;;3.60;74.50;;;;;;5065545;28;20184;-58
2023/02/04 09:43:58;;;;;;;7.95;6.32;;;3.60;74.40;;;;;;5067532;28;20031;-58
2023/02/04 09:46:28;;;;;;;8.00;6.40;;;3.50;74.40;;;;;;5067078;28;20052;-56
2023/02/04 09:48:55;;;;;;;9.50;6.95;;;3.50;74.30;;;;;;5066027;28;20133;-59
2023/02/04 09:51:25;;;;;;;7.28;6.20;;;3.50;74.40;;;;;;5067758;28;21076;-59
2023/02/04 09:53:53;;;;;;;8.38;6.50;;;3.40;74.60;;;;;;5057758;28;20258;-55
2023/02/04 09:56:19;;;;;;;7.03;6.25;;;3.30;74.70;;;;;;5063666;28;20053;-55
2023/02/04 09:58:44;;;;;;;8.02;6.38;;;3.30;74.80;;;;;;5070225;28;20081;-59
2023/02/04 10:01:16;;;;;;;6.85;6.05;;;3.30;75.00;;;;;;5069336;28;20142;-53
2023/02/04 10:03:46;;;;;;;;;;;3.20;75.00;;;;;;5068776;28;20378;-54
2023/02/04 10:06:20;;;;;;;7.28;5.35;;;3.10;74.80;;;;;;5065663;28;20370;-56
2023/02/04 10:08:48;;;;;;;7.22;6.25;;;3.10;75.20;;;;;;5065592;28;20075;-59
2023/02/04 10:11:14;;;;;;;8.70;6.57;;;3.10;75.20;;;;;;5067432;28;20899;-54
2023/02/04 10:13:49;;;;;;;7.13;6.05;;;3.10;75.40;;;;;;5069511;28;20067;-57
2023/02/04 10:16:28;;;;;;;6.90;5.32;;;3.10;75.50;;;;;;5068140;28;20089;-58
2023/02/04 10:19:03;;;;;;;7.22;6.00;;;3.10;75.60;;;;;;5073542;28;20034;-58
2023/02/04 10:21:35;;;;;;;8.35;5.63;;;3.10;75.40;;;;;;5071591;28;20032;-52
2023/02/04 10:24:03;;;;;;;7.95;5.57;;;3.00;75.50;;;;;;5068569;28;20058;-56
2023/02/04 10:26:31;;;;;;;6.80;5.68;;;3.00;75.60;;;;;;5068777;28;20879;-53
2023/02/04 10:29:03;;;;;;;6.07;5.25;;;3.00;75.70;;;;;;5071588;28;20028;-54
2023/02/04 10:31:36;;;;;;;6.95;5.78;;;3.00;75.80;;;;;;5064171;28;20034;-56
2023/02/04 10:34:12;;;;;;;7.20;5.70;;;3.00;76.00;;;;;;5055327;28;20032;-57
2023/02/04 10:36:40;;;;;;;7.45;5.50;;;3.00;75.80;;;;;;5061734;28;20032;-51
2023/02/04 10:39:05;;;;;;;7.07;5.93;;;3.10;75.90;;;;;;5070842;28;20114;-59
2023/02/04 10:41:33;;;;;;;6.40;5.28;;;3.10;75.80;;;;;;5069118;28;20053;-54
2023/02/04 10:44:08;;;;;;;6.78;5.93;;;3.10;75.80;;;;;;5071508;28;20482;-56
2023/02/04 10:46:33;;;;;;;6.50;5.38;;;3.10;75.60;;;;;;5067124;28;20042;-60
2023/02/04 10:48:59;;;;;;;6.40;5.18;;;3.10;75.50;;;;;;5065630;28;20027;-61
2023/02/04 10:51:25;;;;;;;5.47;4.72;;;3.10;75.50;;;;;;5070569;28;20040;-62
2023/02/04 10:56:35;;;;;;;6.03;4.75;;;3.10;75.50;;;;;;5073125;28;20059;-61
2023/02/04 10:59:00;;;;;;;6.05;5.35;;;3.10;75.60;;;;;;5066780;28;20945;-59
2023/02/04 11:01:28;;;;;;;6.18;4.65;;;3.10;75.70;;;;;;5072736;28;20032;-65
2023/02/04 11:03:54;;;;;;;6.03;4.65;;;3.10;75.70;;;;;;5075434;28;20085;-62
2023/02/04 11:06:22;;;;;;;4.80;4.30;;;3.20;75.70;;;;;;5072391;28;20023;-63
2023/02/04 11:08:50;;;;;;;5.68;4.75;;;3.30;75.70;;;;;;5072501;28;20032;-63
2023/02/04 11:11:17;;;;;;;5.65;4.85;;;3.30;75.60;;;;;;5072744;28;20032;-67
2023/02/04 11:13:49;;;;;;;5.65;4.68;;;3.40;75.40;;;;;;5074395;28;20028;-68
2023/02/04 11:16:17;;;;;;;6.35;5.18;;;3.50;75.20;;;;;;5069789;28;20060;-61
2023/02/04 11:19:11;;;;;;;5.38;4.70;;;3.60;75.10;;;;;;5066793;28;20444;-64
2023/02/04 11:21:36;;;;;;;6.15;4.68;;;3.70;75.00;;;;;;5061702;28;20147;-59
2023/02/04 11:24:11;;;;;;;5.82;4.60;;;3.70;74.70;;;;;;5072926;28;20226;-54
2023/02/04 11:26:46;;;;;;;6.78;4.85;;;3.70;74.40;;;;;;5070654;28;20386;-57
2023/02/04 11:29:15;;;;;;;5.20;4.40;;;3.80;74.10;;;;;;5063112;28;20159;-58
2023/02/04 11:31:47;;;;;;;5.75;4.97;;;3.80;74.00;;;;;;5066256;28;20865;-59
2023/02/04 11:34:15;;;;;;;;;;;3.80;73.80;;;;;;5064822;28;20398;-50
2023/02/04 11:37:08;;;;;;;5.57;4.82;;;3.80;73.20;;;;;;5066256;28;19924;-54
2023/02/04 11:39:41;;;;;;;5.07;4.32;;;3.80;73.60;;;;;;5062027;28;20059;-53
2023/02/04 11:42:40;;;;;;;5.30;4.57;;;3.90;73.70;;;;;;5069794;28;20089;-63
2023/02/04 11:45:29;;;;;;;6.82;5.20;;;3.80;73.20;;;;;;5058748;28;20082;-60
2023/02/04 11:47:58;;;;;;;6.28;5.40;;;3.90;73.30;;;;;;5062975;28;20028;-63
2023/02/04 11:50:30;;;;;;;5.95;5.30;;;3.80;73.20;;;;;;5071586;28;20032;-64
2023/02/04 11:52:57;;;;;;;6.30;4.88;;;3.90;73.30;;;;;;5069939;28;20711;-63
2023/02/04 11:55:24;;;;;;;7.00;5.47;;;3.90;73.10;;;;;;5073860;28;20032;-65
2023/02/04 11:57:52;;;;;;;7.35;5.50;;;3.90;73.00;;;;;;5073321;28;20048;-62
2023/02/04 12:00:24;;;;;;;6.85;5.55;;;4.00;72.90;;;;;;5070553;28;20035;-60
2023/02/04 12:03:04;;;;;;;7.68;5.63;;;4.00;72.90;;;;;;5073920;28;20089;-60
2023/02/04 12:05:44;;;;;;;7.00;5.70;;;4.00;72.50;;;;;;5085759;28;20050;-53
2023/02/04 12:08:20;;;;;;;7.28;5.80;;;4.00;72.30;;;;;;5084814;28;20028;-55
2023/02/04 12:11:00;;;;;;;7.07;5.60;;;4.00;72.20;;;;;;5082890;28;20486;-56
2023/02/04 12:13:27;;;;;;;7.07;5.60;;;4.00;72.40;;;;;;5079337;28;20099;-52
2023/02/04 12:16:05;;;;;;;6.70;5.60;;;3.90;72.40;;;;;;5082467;28;20470;-54
2023/02/04 12:18:32;;;;;;;7.07;5.28;;;4.00;72.50;;;;;;5079321;28;20029;-50
2023/02/04 12:20:58;;;;;;;7.65;6.25;;;3.90;72.30;;;;;;5081615;28;20033;-60
2023/02/04 12:23:26;;;;;;;7.30;5.63;;;3.90;72.20;;;;;;5077836;28;20029;-60
2023/02/04 12:25:52;;;;;;;6.97;5.63;;;3.90;72.20;;;;;;5081123;28;20021;-61
2023/02/04 12:28:18;;;;;;;6.32;5.57;;;3.90;72.20;;;;;;5079620;28;20449;-61
2023/02/04 12:30:44;;;;;;;6.93;5.72;;;3.90;72.10;;;;;;5075708;28;20043;-56
2023/02/04 12:33:10;;;;;;;6.70;5.22;;;3.90;72.10;;;;;;5078375;28;20024;-53
2023/02/04 12:35:35;;;;;;;7.47;5.75;;;3.90;72.00;;;;;;5083347;28;20050;-61
2023/02/04 12:38:01;;;;;;;7.18;6.15;;;3.90;71.90;;;;;;5081943;28;20028;-61
2023/02/04 12:40:27;;;;;;;7.25;5.40;;;3.90;72.60;;;;;;5082991;28;20506;-60
2023/02/04 12:42:53;;;;;;;6.93;5.72;;;3.80;72.00;;;;;;5079935;28;20040;-62
2023/02/04 12:45:18;;;;;;;7.97;6.18;;;3.80;72.00;;;;;;5078233;28;20020;-63
2023/02/04 12:47:44;;;;;;;6.95;5.25;;;3.80;71.90;;;;;;5077608;28;20028;-64
2023/02/04 12:50:12;;;;;;;6.30;5.28;;;3.80;71.80;;;;;;5083267;28;20055;-63
2023/02/04 12:52:38;;;;;;;7.55;6.03;;;3.80;71.90;;;;;;5081745;28;20028;-63
2023/02/04 12:55:06;;;;;;;6.43;5.18;;;3.80;72.00;;;;;;5079718;28;20043;-62
2023/02/04 12:57:33;;;;;;;6.97;4.95;;;3.80;72.00;;;;;;5084125;28;20102;-61